CPW8 weather

Public forecast

Using degrees Celsius for public forecast. Weather courtesy of forecast.io.

Closest aviation weather report (METAR) to Powell River (Hospital) Heliport

Report is more than 6 hours old.

Closest report is Powell River Airport, 1.4 nm (2.6 km) SE. Retrieved 2020/08/15 02:00 UTC (8 hours ago):

CYPW 150200Z 30008KT 25SM FEW064 SCT250 23/12 A3015 RMK SC1CI3 SC TR LAST STFD OBS NEXT OBS 151300 UTC SLP213 DENSITY ALT 1200FT

Closest aviation forecast (TAF) to Powell River (Hospital) Heliport

Closest forecast is Comox Airport, 16.5 nm (30.5 km) WSW. Retrieved 2020/08/15 06:42 UTC (4 hours ago):

TAF CYQQ 150539Z 1506/1606 30005KT P6SM FEW250 RMK NXT FCST BY 151200Z